Archival Weather

Chicago O'Hare International

Chicago, Illinois (KORD)

Report from: Friday, September 23, 2022 9:51 AM CDT
Current time: Sunday, December 4, 2022 5:26 AM CST

Current weather
Weather history
Weather forecast

Temperature13.3°C (55.9°F)
Dew point7.2°C (45.0°F)
Winds 8 kts (4.1 m/s, 9.2 mph) South-Southeast (150°)
Visibility10 mi. (16.1 km)
Clouds Few clouds 2,500 ft. (762 m)
Ceiling: Broken clouds 24,000 ft. (7,315 m)
Altimeter30.27 in.Hg (1025 mB)
Relative humidity67 %
Density altitude-453 ft. (-138 m)
Sea-level pressure102.5 kPa (1025 mB, 30.27 in.Hg)
Remarks Automated weather observing station with precipitation discriminator
Pressure falling, then rising
Flight conditions Visual Meteorological Conditions
Raw dataKORD 231451Z 15008KT 10SM FEW025 BKN240 13/07 A3027 RMK AO2 SLP250 T01330072 55000
An error has occurred. This application may no longer respond until reloaded. Reload 🗙